Home > Products > Valid Products > TAF

000
FTUS41 KCLE 011600 AAB
TAFERI
TAF AMD
KERI 011612Z 0116/0212 04005KT P6SM BKN016
      TEMPO 0116/0119 SCT016
     FM011900 04006KT P6SM BKN025
     FM012100 04005KT P6SM SCT035
     FM020400 13004KT 6SM BR FEW008=



000
FTUS41 KCLE 011600 AAB
TAFCAK
TAF AMD
KCAK 011609Z 0116/0212 05005KT P6SM BKN007 OVC015
      TEMPO 0116/0118 SCT009 OVC015
     FM011800 06005KT P6SM BKN025
     FM012100 07005KT P6SM BKN035
     FM020000 11002KT P6SM FEW035=



000
FTUS41 KCLE 011600 AAC
TAFFDY
TAF AMD
KFDY 011607Z 0116/0212 05005KT P6SM SCT025 BKN035
      TEMPO 0116/0118 BKN025
     FM020000 11003KT P6SM SKC
     FM020800 12003KT 3SM BR FEW002
     FM021000 14004KT 1SM BR SCT002=



000
FTUS41 KCLE 011600 AAC
TAFTOL
TAF AMD
KTOL 011606Z 0116/0212 05005KT P6SM SCT025 BKN035
      TEMPO 0116/0118 BKN025
     FM020000 07003KT P6SM SKC
     FM020700 09003KT 3SM BR SCT003
     FM020900 10003KT 2SM BR SCT003=



000
FTUS41 KCLE 011500 AAA
TAFMFD
TAF AMD
KMFD 011502Z 0115/0212 05005KT P6SM SCT012 OVC025
      TEMPO 0115/0118 BKN012
     FM011900 09005KT P6SM BKN035
     FM020000 11003KT P6SM SKC
     FM020800 16003KT 3SM BR FEW002
     FM021000 16003KT 1SM BR SCT002=



000
FTUS41 KCLE 011500 AAB
TAFFDY
TAF AMD
KFDY 011500Z 0115/0212 07005KT P6SM SCT015 BKN035
      TEMPO 0115/0118 BKN015
     FM012000 09005KT P6SM SCT035
     FM020000 11003KT P6SM SKC
     FM020800 12003KT 3SM BR FEW002
     FM021000 14004KT 1SM BR SCT002=



000
FTUS41 KCLE 011400 AAA
TAFCAK
TAF AMD
KCAK 011456Z 0115/0212 08005KT P6SM BKN005 OVC015
      TEMPO 0115/0117 SCT005 OVC015
     FM011700 09005KT P6SM BKN015
     FM011900 09005KT P6SM BKN025
     FM012100 09005KT P6SM BKN035
     FM020000 11002KT P6SM FEW035=



000
FTUS41 KCLE 011400 AAB
TAFTOL
TAF AMD
KTOL 011402Z 0114/0212 03004KT P6SM SCT003
     FM011600 05005KT P6SM BKN020
     FM011800 07005KT P6SM BKN035
     FM012200 09003KT P6SM SCT035
     FM020400 09003KT 3SM BR SCT003
     FM020800 09003KT 2SM BR BKN003=



000
FTUS41 KCLE 011400 AAA
TAFERI
TAF AMD
KERI 011400Z 0114/0212 14007KT P6SM SCT010
      TEMPO 0114/0116 BKN010
     FM011630 07005KT P6SM SCT020
     FM012100 04005KT P6SM SCT035=



000
FTUS41 KCLE 011300 AAA
TAFYNG
TAF AMD
KYNG 011357Z 0114/0212 06005KT 1/4SM FG VV001
     FM011500 07005KT 2SM BR OVC004
     FM011600 08005KT 4SM BR BKN008
     FM011700 09005KT P6SM BKN015
     FM011800 09005KT P6SM BKN025
     FM011900 09005KT P6SM BKN035
     FM012200 12003KT P6SM SCT035
     FM020600 12003KT 2SM BR SCT004=



000
FTUS41 KCLE 011300 AAA
TAFCLE
TAF AMD
KCLE 011356Z 0114/0218 07003KT P6SM SCT015 OVC025
      TEMPO 0114/0116 BKN015
     FM011900 04007KT P6SM BKN035
     FM012200 05005KT P6SM SCT035
     FM020300 14003KT P6SM SKC=



000
FTUS41 KCLE 011200 AAA
TAFFDY
TAF AMD
KFDY 011252Z 0113/0212 01003KT 1SM BR BKN002
      TEMPO 0113/0114 3SM BR SCT002
     FM011400 04005KT 5SM BR BKN005
     FM011600 07005KT P6SM BKN020
     FM011800 09005KT P6SM SCT035
     FM012200 11005KT P6SM SKC=



000
FTUS41 KCLE 011200 AAA
TAFTOL
TAF AMD
KTOL 011251Z 0113/0212 00000KT 1/4SM FG SCT001
      TEMPO 0113/0114 2SM BR BKN001
     FM011400 03005KT 4SM BR BKN005
     FM011600 05005KT P6SM BKN020
     FM011800 07005KT P6SM BKN035
     FM012200 09003KT P6SM SKC
     FM020400 09003KT 3SM BR SCT003
     FM020800 09003KT 2SM BR BKN003=



000
FTUS41 KCLE 011100
TAFFDY
TAF
KFDY 011138Z 0112/0212 01003KT P6SM SCT003 BKN035
      TEMPO 0112/0113 3SM BR
     FM011400 04005KT P6SM BKN015
     FM011600 07005KT P6SM BKN020
     FM011800 09005KT P6SM SCT035
     FM012200 11005KT P6SM SKC=



000
FTUS41 KCLE 011100
TAFCAK
TAF
KCAK 011138Z 0112/0212 03003KT P6SM BKN008 OVC012
      TEMPO 0112/0114 3SM BR
     FM011500 09005KT P6SM BKN015
     FM011700 09005KT P6SM BKN025
     FM011900 09005KT P6SM BKN035
     FM012200 11003KT P6SM SKC=



000
FTUS41 KCLE 011100
TAFCLE
TAF
KCLE 011138Z 0112/0218 VRB03KT P6SM BKN015
     FM011400 07005KT P6SM BKN012
     FM011700 04007KT P6SM BKN020
     FM011900 04007KT P6SM BKN035
     FM012200 07005KT P6SM SCT035
     FM020300 14003KT P6SM SKC=



000
FTUS41 KCLE 011100
TAFMFD
TAF
KMFD 011138Z 0112/0212 01003KT P6SM SCT006
      TEMPO 0112/0113 3SM BR BKN006
     FM011300 03005KT P6SM BKN006
     FM011500 05005KT P6SM BKN012
     FM011700 07005KT P6SM BKN025
     FM011900 09005KT P6SM BKN035
     FM012200 11003KT P6SM SKC=



000
FTUS41 KCLE 011100
TAFYNG
TAF
KYNG 011138Z 0112/0212 VRB03KT 1/2SM FG OVC001
     FM011400 07003KT 2SM BR OVC004
     FM011500 09005KT 4SM BR BKN008
     FM011600 09005KT P6SM BKN015
     FM011700 09005KT P6SM BKN025
     FM011900 09005KT P6SM BKN035
     FM012200 12003KT P6SM SCT035
     FM020600 12003KT 2SM BR SCT004=



000
FTUS41 KCLE 011100
TAFERI
TAF
KERI 011138Z 0112/0212 VRB03KT P6SM SCT006
      TEMPO 0112/0114 4SM BR BKN006
     FM011400 09003KT P6SM BKN008
     FM011530 09005KT P6SM BKN015
     FM011630 09005KT P6SM BKN020
     FM011800 04007KT P6SM BKN035
     FM012200 06005KT P6SM SCT035=



000
FTUS41 KCLE 011100
TAFTOL
TAF
KTOL 011138Z 0112/0212 01003KT P6SM SCT015
      TEMPO 0112/0114 3SM BR BKN015
     FM011400 03005KT P6SM BKN015
     FM011600 05005KT P6SM BKN020
     FM011800 07005KT P6SM BKN035
     FM012200 09003KT P6SM SKC
     FM020400 09003KT 3SM BR SCT003
     FM020800 09003KT 2SM BR BKN003=



000
FTUS41 KCLE 010800 AAA
TAFERI
TAF AMD
KERI 010823Z 0108/0206 VRB03KT P6SM BKN008
      TEMPO 0110/0113 4SM BR OVC008
     FM011400 09005KT P6SM BKN012
     FM011600 09005KT P6SM BKN020
     FM011800 05007KT P6SM BKN035=



000
FTUS41 KCLE 010800 AAA
TAFCAK
TAF AMD
KCAK 010822Z 0108/0206 03003KT 5SM BR SCT002 BKN012
      TEMPO 0108/0110 1 1/2SM BR BKN002
     FM011000 03003KT 1/2SM FG OVC002
     FM011400 05003KT 2SM BR OVC004
     FM011500 07005KT 4SM BR BKN008
     FM011600 09005KT P6SM BKN015
     FM011700 09005KT P6SM BKN025
     FM011900 09005KT P6SM BKN035=



000
FTUS41 KCLE 010800 AAA
TAFYNG
TAF AMD
KYNG 010822Z 0108/0206 VRB03KT 1 1/2SM BR SCT002 BKN010
      TEMPO 0108/0110 1/2SM FG OVC002
     FM011000 VRB03KT 1/2SM FG OVC002
     FM011400 07003KT 2SM BR OVC004
     FM011500 09005KT 4SM BR BKN008
     FM011600 09005KT P6SM BKN015
     FM011700 09005KT P6SM BKN025
     FM011900 12005KT P6SM BKN035=



000
FTUS41 KCLE 010800 AAA
TAFCLE
TAF AMD
KCLE 010815Z 0108/0212 VRB03KT P6SM BKN015
     FM011000 VRB03KT 5SM BR BKN007
      TEMPO 0110/0113 2SM BR OVC007
     FM011400 07005KT P6SM BKN012
     FM011700 04007KT P6SM BKN020
     FM011900 04007KT P6SM BKN035
     FM012200 07005KT P6SM SCT035=



000
FTUS41 KCLE 010500
TAFYNG
TAF
KYNG 010539Z 0106/0206 VRB03KT 1 1/2SM BR SCT002 BKN010
      TEMPO 0106/0108 1/2SM FG OVC002
     FM010800 VRB03KT 1/2SM FG VV001
     FM011400 07003KT 2SM BR OVC004
     FM011500 09005KT 4SM BR BKN008
     FM011600 09005KT P6SM BKN015
     FM011700 09005KT P6SM BKN025
     FM011900 12005KT P6SM BKN035=



000
FTUS41 KCLE 010500
TAFTOL
TAF
KTOL 010539Z 0106/0206 01005KT P6SM SCT012 BKN020
     FM010900 01003KT 4SM BR SCT006 BKN012
      TEMPO 0110/0113 2SM BR OVC006
     FM011400 03005KT P6SM BKN012
     FM011600 05005KT P6SM BKN020
     FM011800 07005KT P6SM BKN035
     FM012200 09003KT P6SM SKC
     FM020400 09003KT 3SM BR SCT003=



000
FTUS41 KCLE 010500
TAFCLE
TAF
KCLE 010539Z 0106/0212 VRB03KT P6SM SCT025
     FM011000 VRB03KT 5SM BR BKN007
      TEMPO 0110/0113 2SM BR OVC007
     FM011400 07005KT P6SM BKN012
     FM011700 04007KT P6SM BKN020
     FM011900 04007KT P6SM BKN035
     FM012200 07005KT P6SM SCT035=



000
FTUS41 KCLE 010500
TAFFDY
TAF
KFDY 010539Z 0106/0206 01005KT P6SM SCT012 BKN020
     FM010900 01003KT 5SM BR SCT006 BKN012
      TEMPO 0110/0113 2SM BR OVC006
     FM011400 04005KT P6SM BKN012
     FM011600 07005KT P6SM BKN020
     FM011800 09005KT P6SM SCT035
     FM012200 11003KT P6SM SKC=



000
FTUS41 KCLE 010500
TAFMFD
TAF
KMFD 010539Z 0106/0206 01003KT 1SM BR SCT003
      TEMPO 0106/0108 1/2SM FG OVC003
     FM010800 03003KT 1/2SM FG VV002
     FM011400 05003KT 2SM BR OVC005
     FM011500 05005KT 4SM BR BKN008
     FM011600 07005KT P6SM BKN015
     FM011700 07005KT P6SM BKN025
     FM011900 09005KT P6SM BKN035=



000
FTUS41 KCLE 010500
TAFERI
TAF
KERI 010539Z 0106/0206 18003KT P6SM SCT006
     FM010900 VRB03KT 4SM BR BKN006
     FM011400 09005KT P6SM BKN012
     FM011600 09005KT P6SM BKN020
     FM011800 05007KT P6SM BKN035=



000
FTUS41 KCLE 010500
TAFCAK
TAF
KCAK 010539Z 0106/0206 03003KT 2SM BR SCT001 BKN010
      TEMPO 0106/0108 1/2SM FG OVC001
     FM010800 03003KT 1/2SM FG VV001
     FM011400 05003KT 2SM BR OVC004
     FM011500 07005KT 4SM BR BKN008
     FM011600 09005KT P6SM BKN015
     FM011700 09005KT P6SM BKN025
     FM011900 09005KT P6SM BKN035=



000
FTUS41 KCLE 010400 AAB
TAFMFD
TAF AMD
KMFD 010411Z 0104/0124 33005KT 3SM BR SCT006
      TEMPO 0104/0106 1SM BR
     FM010600 03003KT 1SM BR SCT006
      TEMPO 0106/0109 1/2SM FG BKN004
     FM010900 00000KT 1/2SM FG VV002
     FM011300 05003KT 4SM BR OVC008
     FM011600 07004KT P6SM BKN018=



000
FTUS41 KCLE 010400 AAB
TAFTOL
TAF AMD
KTOL 010403Z 0104/0124 01004KT P6SM SCT035
     FM010600 01004KT P6SM SCT015 BKN025
     FM010900 01002KT 3SM BR OVC008
      TEMPO 0110/0113 1SM BR OVC005
     FM011400 05003KT 4SM BR OVC012
     FM011600 07004KT P6SM BKN022=



000
FTUS41 KCLE 010400 AAB
TAFFDY
TAF AMD
KFDY 010400Z 0104/0124 01006KT P6SM SCT011 BKN025
     FM010700 02004KT 5SM BR BKN018
     FM011000 01002KT 2SM BR BKN011
      TEMPO 0110/0114 3/4SM BR BKN008
     FM011400 06003KT 4SM BR OVC012
     FM011600 07004KT P6SM BKN022=



000
FTUS41 KCLE 010300 AAB
TAFCLE
TAF AMD
KCLE 010304Z 0103/0206 01004KT P6SM SCT025 BKN035
     FM010400 01003KT P6SM SCT035
     FM010800 02003KT 5SM BR BKN008
      TEMPO 0108/0112 2SM BR BKN005
     FM011400 07004KT P6SM BKN012
     FM011800 04006KT P6SM BKN020=



000
FTUS41 KCLE 010200 AAA
TAFMFD
TAF AMD
KMFD 010241Z 0103/0124 33005KT P6SM SCT015 OVC035
     FM010400 35003KT P6SM SCT035
     FM010600 03003KT 5SM BR SCT006
      TEMPO 0107/0109 2SM BR BKN005
     FM010900 03002KT 1/2SM FG VV002
     FM011400 05003KT 4SM BR OVC008
     FM011600 07004KT P6SM BKN018=



000
FTUS41 KCLE 010200 AAA
TAFFDY
TAF AMD
KFDY 010233Z 0103/0124 36005KT P6SM BKN040
     FM010300 36004KT P6SM SCT040
     FM010600 02004KT 5SM BR SCT006
      TEMPO 0106/0110 2SM BR BKN004
     FM011000 01002KT 1/2SM FG VV003
     FM011400 06003KT 4SM BR OVC012
     FM011600 07004KT P6SM BKN022=



000
FTUS41 KCLE 010200 AAA
TAFYNG
TAF AMD
KYNG 010220Z 0102/0124 36005KT P6SM SCT015 BKN035
     FM010500 35003KT 5SM BR SCT008
      TEMPO 0106/0108 2SM BR OVC003
     FM010800 36002KT 3/4SM BR VV003
     FM011400 08004KT 5SM BR OVC010
     FM011800 09005KT P6SM BKN020=



000
FTUS41 KCLE 010200 AAA
TAFCAK
TAF AMD
KCAK 010217Z 0102/0124 02005KT P6SM FEW010 SCT035
     FM010500 02004KT 5SM BR SCT008
      TEMPO 0105/0109 1SM BR OVC003
     FM010900 04002KT 3/4SM BR VV003
     FM011400 08004KT 5SM BR OVC010
     FM011800 09005KT P6SM BKN020=



000
FTUS41 KCLE 010100 AAA
TAFTOL
TAF AMD
KTOL 010107Z 0101/0124 01004KT P6SM BKN018 OVC030
      TEMPO 0104/0106 5SM BR BKN018
     FM010600 01004KT 3SM BR SCT004 BKN015
     FM010900 01002KT 1/2SM FG VV003
     FM011400 05003KT 4SM BR OVC012
     FM011600 07004KT P6SM BKN022=



000
FTUS41 KCLE 010000 AAA
TAFCLE
TAF AMD
KCLE 010034Z 0101/0206 35007KT P6SM SCT018 OVC035
     FM010300 36004KT P6SM BKN018
     FM010500 02003KT 3SM BR BKN003
      TEMPO 0106/0110 1SM BR
     FM011000 06002KT 3/4SM BR VV003
     FM011400 07004KT 5SM BR OVC010
     FM011800 04006KT P6SM BKN020=



000
FTUS41 KCLE 302300
TAFTOL
TAF
KTOL 302340Z 0100/0124 01004KT P6SM OVC030
      TEMPO 0104/0106 4SM BR BKN018
     FM010600 01004KT 3SM BR SCT004
     FM010900 01002KT 1/2SM FG VV003
     FM011400 05003KT 4SM BR OVC012
     FM011600 07004KT P6SM BKN022=



000
FTUS41 KCLE 302300
TAFCAK
TAF
KCAK 302340Z 0100/0124 36006KT P6SM SCT025 BKN035
     FM010200 36004KT P6SM BKN025
     FM010500 02004KT 3SM BR BKN005
      TEMPO 0105/0109 1SM BR OVC003
     FM010900 04002KT 3/4SM BR VV003
     FM011400 08004KT 5SM BR OVC010
     FM011800 09005KT P6SM BKN020=



000
FTUS41 KCLE 302300
TAFCLE
TAF
KCLE 302340Z 0100/0206 35005KT P6SM BKN025 OVC035
     FM010300 36004KT P6SM BKN018
     FM010500 02003KT 3SM BR BKN003
      TEMPO 0106/0110 1SM BR
     FM011000 06002KT 3/4SM BR VV003
     FM011400 07004KT 5SM BR OVC010
     FM011800 04006KT P6SM BKN020=



000
FTUS41 KCLE 302300
TAFFDY
TAF
KFDY 302340Z 0100/0124 34005KT P6SM OVC028
      TEMPO 0104/0106 4SM BR BKN018
     FM010600 02004KT 3SM BR SCT004
     FM011000 01002KT 1/2SM FG VV003
     FM011400 06003KT 4SM BR OVC012
     FM011600 07004KT P6SM BKN022=



000
FTUS41 KCLE 302300
TAFERI
TAF
KERI 302340Z 0100/0124 30003KT P6SM SCT015 BKN022
      TEMPO 0101/0105 SCT025 BKN035
     FM010600 10004KT 5SM BR BKN012
     FM011000 08004KT 2SM BR BKN005 OVC012
     FM011400 09007KT 6SM HZ BKN012
     FM011700 05007KT P6SM SCT020=



000
FTUS41 KCLE 302300
TAFYNG
TAF
KYNG 302340Z 0100/0124 33006KT P6SM SCT015 BKN022
     FM010400 35003KT 3SM BR BKN005
      TEMPO 0104/0108 2SM BR OVC003
     FM010800 36002KT 3/4SM BR VV003
     FM011400 08004KT 5SM BR OVC010
     FM011800 09005KT P6SM BKN020=



000
FTUS41 KCLE 302300
TAFMFD
TAF
KMFD 302340Z 0100/0124 34008KT P6SM SCT018 OVC028
      TEMPO 0104/0106 02004KT 4SM BR BKN010
     FM010600 03003KT 2SM BR BKN003
     FM010800 03002KT 1/2SM -DZ FG VV002
     FM011400 05003KT 4SM BR OVC008
     FM011600 07004KT P6SM BKN018=



000
FTUS41 KCLE 302100 AAB
TAFCAK
TAF AMD
KCAK 302118Z 3021/0118 34008KT P6SM SCT010 BKN035
      TEMPO 3021/3023 SCT015 BKN025
     FM010500 35003KT 2SM BR BKN005
     FM010800 36002KT 3/4SM BR VV003
     FM011500 04004KT P6SM OVC010=



000
FTUS41 KCLE 302100 AAB
TAFYNG
TAF AMD
KYNG 302116Z 3021/0118 33006KT P6SM SCT015 BKN025
      TEMPO 3021/3023 33012KT 5SM -SHRA BR BKN015
     FM010400 35003KT 2SM BR BKN005
     FM010800 36002KT 3/4SM BR VV003
     FM011500 04004KT P6SM OVC010=



000
FTUS41 KCLE 302100 AAC
TAFCLE
TAF AMD
KCLE 302104Z 3021/0124 33008KT P6SM SCT015 OVC040
      TEMPO 3022/0102 BKN025
     FM010300 36004KT P6SM BKN025
     FM010600 02004KT 2SM BR BKN003
     FM010900 08002KT 3/4SM BR VV003
     FM011500 07004KT P6SM OVC010
     FM011800 04006KT P6SM BKN020=



000
FTUS41 KCLE 301900 AAB
TAFCLE
TAF AMD
KCLE 301941Z 3020/0124 33008KT P6SM SCT015 OVC030
      TEMPO 3022/0102 3SM -SHRA BR BKN015
     FM010600 02004KT 2SM BR BKN003
     FM010900 08002KT 3/4SM BR VV003
     FM011500 07004KT P6SM OVC010
     FM011800 04006KT P6SM BKN020=



000
FTUS41 KCLE 301900 AAC
TAFMFD
TAF AMD
KMFD 301933Z 3020/0118 34006KT P6SM SCT015 BKN025
      TEMPO 3020/3022 BKN015
     FM010500 03003KT 2SM BR BKN003
     FM010800 03002KT 1/2SM FG VV002
     FM011500 08003KT P6SM BKN009=



000
FTUS41 KCLE 301900 AAB
TAFERI
TAF AMD
KERI 301914Z 3019/0118 VRB05KT P6SM BKN015
      TEMPO 3020/3024 3SM -SHRA BR SCT010 OVC025
     FM010000 VRB04KT P6SM SCT015 BKN035
      TEMPO 0101/0105 3SM -SHRA BKN015
     FM010500 02004KT 3SM BR BKN012
     FM010800 08004KT 1SM BR BKN005 OVC012
     FM011500 09007KT 6SM HZ OVC012=



000
FTUS41 KCLE 301800 AAA
TAFFDY
TAF AMD
KFDY 301858Z 3019/0118 34006KT P6SM BKN020
     FM010500 02004KT 3SM BR SCT004
     FM010900 01002KT 1/2SM FG VV003
     FM011500 05003KT P6SM SCT010=



000
FTUS41 KCLE 301800 AAB
TAFMFD
TAF AMD
KMFD 301857Z 3019/0118 34007KT P6SM SCT009 OVC018
      TEMPO 3020/3022 BKN020
     FM302200 35008KT P6SM BKN020
     FM010500 03003KT 2SM BR BKN003
     FM010800 03002KT 1/2SM FG VV002
     FM011500 08003KT P6SM BKN009=



000
FTUS41 KCLE 301800 AAA
TAFERI
TAF AMD
KERI 301844Z 3019/0118 20005KT P6SM SCT025 BKN050
      TEMPO 3020/3024 3SM -SHRA BR BKN020 OVC035
     FM010000 VRB04KT P6SM SCT015 BKN035
      TEMPO 0101/0105 3SM -SHRA BKN015
     FM010500 02004KT 3SM BR BKN012
     FM010800 08004KT 1SM BR BKN005 OVC012
     FM011500 09007KT 6SM HZ OVC012=



000
FTUS41 KCLE 301800 AAA
TAFYNG
TAF AMD
KYNG 301842Z 3019/0118 22007KT P6SM SCT015 BKN040
      TEMPO 3019/3023 3SM -SHRA BR BKN015
     FM010400 35003KT 2SM BR BKN005
     FM010800 36002KT 3/4SM BR VV003
     FM011500 04004KT P6SM OVC010=



000
FTUS41 KCLE 301800 AAA
TAFCAK
TAF AMD
KCAK 301836Z 3019/0118 33007KT P6SM SCT007 BKN015
      TEMPO 3019/3022 4SM -RA BR BKN007 OVC015
     FM010500 35003KT 2SM BR BKN005
     FM010800 36002KT 3/4SM BR VV003
     FM011500 04004KT P6SM OVC010=



000
FTUS41 KCLE 301800 AAA
TAFMFD
TAF AMD
KMFD 301811Z 3018/0118 34008KT P6SM OVC005
      TEMPO 3018/3021 4SM BR OVC010
     FM302100 35008KT 6SM BR BKN015 OVC025
     FM010500 03003KT 2SM BR BKN003
     FM010800 03002KT 1/2SM FG VV002
     FM011500 08003KT P6SM BKN009=



000
FTUS41 KCLE 301800 AAA
TAFTOL
TAF AMD
KTOL 301807Z 3018/0118 36006KT P6SM BKN020
     FM010500 01004KT 3SM BR SCT004
     FM010900 01002KT 1/2SM FG VV003
     FM011500 05003KT P6SM SCT010=



000
FTUS41 KCLE 301700 AAA
TAFCLE
TAF AMD
KCLE 301740Z 3018/0124 33008KT P6SM SCT008 OVC015
      TEMPO 3018/3022 3SM -RA BR
     FM302200 34008KT P6SM VCSH BKN020
     FM010600 02004KT 2SM BR BKN003
     FM010900 08002KT 3/4SM BR VV003
     FM011500 07004KT P6SM OVC010
     FM011800 04006KT P6SM BKN020=



000
FTUS41 KCLE 301700
TAFCAK
TAF
KCAK 301726Z 3018/0118 30007KT 5SM BR BKN007 OVC035
      TEMPO 3018/3022 2SM -DZ BR BKN005 OVC015
     FM302200 33006KT 6SM BR VCSH BKN010 OVC025
     FM010400 35003KT 2SM BR BKN005
     FM010800 36002KT 3/4SM BR VV003
     FM011500 04004KT P6SM OVC010=



000
FTUS41 KCLE 301700
TAFERI
TAF
KERI 301726Z 3018/0118 VRB05KT 6SM -RA BR OVC050
      TEMPO 3018/3022 3SM -RA BR BKN015 OVC035
     FM302200 35006KT 6SM BR SCT007 OVC025
      TEMPO 3022/0102 3SM -RA BKN007
     FM010500 02004KT 3SM BR BKN007
     FM010800 08004KT 1SM BR BKN005 OVC012
     FM011500 09007KT 6SM HZ OVC012=



000
FTUS41 KCLE 301700
TAFYNG
TAF
KYNG 301726Z 3018/0118 22007KT P6SM SCT010 OVC040
      TEMPO 3018/3022 3SM -RA BR BKN010
     FM302200 32006KT 6SM BR VCSH BKN010 OVC025
     FM010400 35003KT 2SM BR BKN005
     FM010800 36002KT 3/4SM BR VV003
     FM011500 04004KT P6SM OVC010=



000
FTUS41 KCLE 301700
TAFFDY
TAF
KFDY 301726Z 3018/0118 34008KT P6SM OVC015
     FM302100 01006KT P6SM BKN022
     FM010500 02004KT 3SM BR SCT004
     FM010900 01002KT 1/2SM FG VV003
     FM011500 05003KT P6SM SCT010=



000
FTUS41 KCLE 301700
TAFCLE
TAF
KCLE 301726Z 3018/0124 33009KT 5SM BR OVC008
      TEMPO 3018/3020 6SM -RA BR OVC012
     FM302000 34008KT 6SM BR VCSH BKN015 OVC025
     FM010600 02004KT 2SM BR BKN003
     FM010900 08002KT 3/4SM BR VV003
     FM011500 07004KT P6SM OVC010
     FM011800 04006KT P6SM BKN020=



000
FTUS41 KCLE 301700
TAFMFD
TAF
KMFD 301726Z 3018/0118 33009KT 5SM BR OVC006
      TEMPO 3018/3021 2SM BR OVC004
     FM302100 35008KT 6SM BR BKN015 OVC025
     FM010500 03003KT 2SM BR BKN003
     FM010800 03002KT 1/2SM FG VV002
     FM011500 08003KT P6SM BKN009=



000
FTUS41 KCLE 301700
TAFTOL
TAF
KTOL 301726Z 3018/0118 35008KT P6SM OVC018
     FM302100 01006KT P6SM BKN022
     FM010500 01004KT 3SM BR SCT004
     FM010900 01002KT 1/2SM FG VV003
     FM011500 05003KT P6SM SCT010=



000
FTUS41 KCLE 301400 AAB
TAFCAK
TAF AMD
KCAK 301456Z 3015/0112 30005KT 4SM BR SCT006 OVC040
      TEMPO 3015/3017 2SM -SHRA BR BKN006
     FM301700 33008KT 5SM BR BKN006 OVC012
      TEMPO 3017/3020 1SM -DZ BR BKN004
     FM302000 33006KT P6SM BKN010 OVC025
     FM010200 35004KT 2SM BR OVC003=



000
FTUS41 KCLE 301400 AAB
TAFMFD
TAF AMD
KMFD 301450Z 3015/0112 32010KT 3SM BR OVC003
      TEMPO 3015/3018 1SM -DZ BR OVC006
     FM301800 32009KT 6SM BR OVC006
      TEMPO 3018/3020 4SM BR OVC004
     FM302000 35006KT P6SM BKN012 OVC025
     FM302200 01003KT P6SM BKN025
     FM010400 03003KT 2SM BR OVC003=



000
FTUS41 KCLE 301400 AAB
TAFCLE
TAF AMD
KCLE 301432Z 3015/0118 33011KT 4SM BR OVC007
      TEMPO 3015/3019 1SM -RA BR OVC004
     FM301900 35008KT P6SM VCSH BKN015 OVC025
     FM010700 02004KT 2SM BR OVC003
     FM011530 02006KT P6SM OVC010=



000
FTUS41 KCLE 301300 AAA
TAFCLE
TAF AMD
KCLE 301357Z 3014/0118 33011KT 6SM BR OVC005
      TEMPO 3015/3019 3SM -RA BR OVC007
     FM301900 35008KT P6SM VCSH BKN015 OVC025
     FM010700 02004KT 2SM BR OVC003
     FM011530 02006KT P6SM OVC010=



000
FTUS41 KCLE 301300 AAA
TAFYNG
TAF AMD
KYNG 301343Z 3014/0112 28005KT 3SM -RA BR SCT006 OVC040
      TEMPO 3014/3017 1SM -TSRA BR BKN007CB OVC012
     FM301800 32008KT P6SM BKN007 OVC015
      TEMPO 3018/3022 3SM -RA BR OVC007
     FM010000 35003KT 2SM BR OVC003=



000
FTUS41 KCLE 301300 AAA
TAFCAK
TAF AMD
KCAK 301341Z 3014/0112 30005KT 4SM -RA BR SCT006 OVC040
      TEMPO 3014/3017 1SM -TSRA BR OVC006CB
     FM301700 33008KT P6SM BKN007 OVC012
     FM302000 33006KT P6SM BKN012 OVC025
     FM010200 35004KT 2SM BR OVC003=



000
FTUS41 KCLE 301300 AAA
TAFMFD
TAF AMD
KMFD 301338Z 3014/0112 32008KT 1 1/2SM BR BKN004 OVC035
      TEMPO 3014/3015 3SM -TSRA BR OVC008CB
     FM301500 32009KT 6SM BR OVC006
      TEMPO 3015/3016 4SM BR OVC004
     FM301800 35006KT P6SM BKN012 OVC025
     FM302200 01003KT P6SM BKN025
     FM010400 03003KT 2SM BR OVC003=



000
FTUS41 KCLE 301200 AAA
TAFTOL
TAF AMD
KTOL 301220Z 3012/0112 35010KT P6SM OVC015
      TEMPO 3012/3016 OVC007
     FM302000 01006KT P6SM BKN020
     FM302200 01004KT P6SM SCT020
     FM010600 01004KT 3SM BR OVC004=



000
FTUS41 KCLE 301100
TAFFDY
TAF
KFDY 301136Z 3012/0112 32008KT P6SM SCT006 OVC040
      TEMPO 3012/3013 4SM BR OVC006
     FM301300 34008KT P6SM OVC006
     FM301600 36006KT P6SM OVC015
     FM302200 02006KT P6SM BKN020
     FM010000 02004KT P6SM SCT020
     FM010500 02004KT 3SM BR OVC004=



000
FTUS41 KCLE 301100
TAFCAK
TAF
KCAK 301136Z 3012/0112 VRB02KT 4SM BR BKN080 OVC250
     FM301300 29006KT 4SM -RA BR SCT007 OVC040
      TEMPO 3013/3017 2SM TSRA BR OVC007CB
     FM301700 33006KT P6SM BKN007 OVC012
     FM302000 33006KT P6SM BKN012 OVC025
     FM010200 35004KT 2SM BR OVC003=



000
FTUS41 KCLE 301100
TAFYNG
TAF
KYNG 301136Z 3012/0112 26003KT P6SM BKN080 OVC250
     FM301400 29006KT 5SM -RA SCT007 OVC040
      TEMPO 3014/3018 2SM -RA BR BKN007 OVC012
     FM301800 32006KT P6SM BKN007 OVC015
      TEMPO 3018/3020 3SM -RA BR OVC007
     FM010000 35003KT 2SM BR OVC003=



000
FTUS41 KCLE 301100
TAFTOL
TAF
KTOL 301136Z 3012/0112 33008KT P6SM OVC006
     FM301500 35008KT P6SM OVC015
     FM302000 01006KT P6SM BKN020
     FM302200 01004KT P6SM SCT020
     FM010600 01004KT 3SM BR OVC004=



000
FTUS41 KCLE 301100
TAFCLE
TAF
KCLE 301136Z 3012/0118 29006KT 5SM -RA BR SCT015 OVC050
      TEMPO 3012/3013 2SM TSRA BR OVC007CB
     FM301300 33008KT 5SM BR SCT007 OVC040
      TEMPO 3013/3015 2SM -RA BR OVC007
     FM301500 36008KT P6SM OVC007
     FM301900 36008KT P6SM BKN015 OVC025
     FM010700 02004KT 4SM BR OVC003
     FM011530 02006KT P6SM OVC010=



000
FTUS41 KCLE 301100
TAFERI
TAF
KERI 301136Z 3012/0112 22006KT 5SM BR SCT007 OVC050
      TEMPO 3012/3014 2SM -RA BR OVC007
     FM301400 29006KT 5SM -RA BR SCT007 OVC015
      TEMPO 3014/3018 2SM -RA BR OVC007
     FM301800 34006KT P6SM BKN007 OVC015
      TEMPO 3018/3020 4SM -RA BR OVC007
     FM010100 36004KT P6SM OVC003=



000
FTUS41 KCLE 301100
TAFMFD
TAF
KMFD 301136Z 3012/0112 29006KT 5SM -RA BR SCT006 OVC050
      TEMPO 3012/3014 2SM -TSRA BR OVC006CB
     FM301400 32008KT P6SM OVC006
      TEMPO 3014/3016 4SM BR
     FM301800 35006KT P6SM BKN012 OVC025
     FM302200 01003KT P6SM BKN025
     FM010400 03003KT 2SM BR OVC003=



000
FTUS41 KCLE 301000 AAB
TAFCLE
TAF AMD
KCLE 301053Z 3011/0112 26004KT 5SM -RA BR SCT015 OVC050
      TEMPO 3011/3013 2SM TSRA BR OVC007CB
     FM301300 32008KT P6SM OVC007
      TEMPO 3013/3015 5SM -RA BR OVC004
     FM301500 36008KT P6SM OVC007
     FM302100 36008KT P6SM OVC015=



000
FTUS41 KCLE 301000 AAA
TAFMFD
TAF AMD
KMFD 301051Z 3011/0106 22003KT P6SM SCT050 BKN080
     FM301100 29006KT 4SM -RA BR SCT006 OVC050
      TEMPO 3012/3013 2SM -TSRA BR OVC006CB
     FM301400 32006KT P6SM OVC006
      TEMPO 3014/3016 4SM BR
     FM301900 35006KT P6SM BKN012 OVC025
     FM010400 35003KT 2SM BR OVC003=



000
FTUS41 KCLE 301000 AAA
TAFFDY
TAF AMD
KFDY 301048Z 3011/0106 32006KT 5SM -RA BR SCT015 OVC050
      TEMPO 3011/3012 2SM -TSRA BR OVC007CB
     FM301200 32008KT P6SM OVC007
      TEMPO 3012/3014 4SM BR
     FM301700 36006KT P6SM OVC015
     FM302100 02006KT P6SM OVC020=



000
FTUS41 KCLE 300900 AAA
TAFCLE
TAF AMD
KCLE 300905Z 3009/0112 26004KT P6SM SCT015 OVC080
      TEMPO 3011/3013 5SM -RA BR OVC015
     FM301300 32006KT 5SM BR OVC007
      TEMPO 3013/3015 2SM -RA BR OVC004
     FM301500 36008KT P6SM OVC007
     FM302100 36008KT P6SM OVC015=



000
FTUS41 KCLE 300500 RRA
TAFYNG
TAF
KYNG 300543Z 3006/0106 VRB03KT P6SM SKC
     FM301000 VRB03KT 4SM BR SCT080
     FM301200 26003KT P6SM BKN080 OVC250
     FM301400 29006KT P6SM SCT012
      TEMPO 3014/3018 4SM -RA BR OVC012
     FM301800 32006KT P6SM BKN012 OVC025
     FM010000 35003KT 3SM BR OVC003=



000
FTUS41 KCLE 300500 RRA
TAFTOL
TAF
KTOL 300543Z 3006/0106 26003KT P6SM BKN080 OVC250
     FM300800 31006KT 6SM -RA SCT006 OVC015
      TEMPO 3008/3010 4SM -RA BR OVC006
     FM301000 33006KT P6SM OVC006
      TEMPO 3010/3012 4SM BR
     FM301600 35006KT P6SM OVC015
     FM302100 01004KT P6SM OVC020=



000
FTUS41 KCLE 300500 RRA
TAFCAK
TAF
KCAK 300543Z 3006/0106 VRB03KT P6SM SKC
     FM301000 VRB03KT 4SM BR SCT080
     FM301200 26003KT P6SM BKN080 OVC250
     FM301400 29006KT P6SM SCT012
      TEMPO 3014/3018 4SM -RA BR OVC012
     FM301800 32006KT P6SM BKN007 OVC012
     FM010200 35003KT 3SM BR OVC003=



000
FTUS41 KCLE 300500 RRA
TAFFDY
TAF
KFDY 300543Z 3006/0106 22003KT P6SM BKN080 OVC250
     FM300800 28006KT P6SM SCT015 OVC080
      TEMPO 3010/3012 5SM -RA BR OVC015
     FM301200 32006KT P6SM OVC006
      TEMPO 3012/3014 4SM BR
     FM301700 36006KT P6SM OVC015
     FM302100 02006KT P6SM OVC020=



000
FTUS41 KCLE 300500 RRA
TAFCLE
TAF
KCLE 300543Z 3006/0112 22003KT P6SM BKN080
     FM300800 28006KT P6SM SCT015 OVC080
      TEMPO 3010/3012 5SM -RA BR OVC015
     FM301200 32006KT 5SM BR OVC007
      TEMPO 3012/3015 2SM -RA BR OVC004
     FM301500 36008KT P6SM OVC007
     FM302100 36008KT P6SM OVC015=



000
FTUS41 KCLE 300500 RRA
TAFERI
TAF
KERI 300543Z 3006/0106 20004KT P6SM BKN080
     FM301200 22006KT P6SM SCT015 OVC080
      TEMPO 3012/3014 5SM -RA BR OVC015
     FM301400 29006KT 5SM -RA BR SCT005 OVC015
      TEMPO 3014/3018 2SM -RA BR OVC005
     FM301800 34006KT P6SM BKN007 OVC015
     FM010100 36004KT P6SM OVC003=



000
FTUS41 KCLE 300500 RRA
TAFMFD
TAF
KMFD 300543Z 3006/0106 20003KT P6SM SCT080
     FM300900 26003KT P6SM BKN080 OVC250
     FM301100 29006KT P6SM SCT012
      TEMPO 3011/3014 4SM -RA BR OVC012
     FM301400 32006KT 4SM BR OVC006
     FM301900 35006KT P6SM BKN012 OVC025
     FM010400 35003KT 2SM BR OVC003=



000
FTUS41 KCLE 300200 AAA
TAFCLE
TAF AMD
KCLE 300227Z 3002/0106 VRB03KT P6SM SKC
     FM300600 VRB05KT P6SM SCT100 BKN250
     FM300900 28005KT P6SM SCT015 BKN040 OVC100
     FM301200 29006KT 6SM -SHRA SCT006 OVC015
     FM301500 32006KT 6SM BR BKN006 OVC012
     FM302100 35006KT P6SM VCSH OVC012
     FM010300 07004KT 5SM BR OVC007=



000
FTUS41 KCLE 292300
TAFFDY
TAF
KFDY 292327Z 3000/3024 28005KT P6SM SKC
     FM300300 26003KT P6SM SCT100 BKN250
     FM301100 32006KT 6SM -SHRA BR SCT006 OVC015
     FM301300 32006KT 4SM BR OVC006
     FM301500 35006KT P6SM OVC007
     FM301700 34006KT P6SM OVC012
     FM302200 35005KT P6SM OVC050=



000
FTUS41 KCLE 292300
TAFTOL
TAF
KTOL 292327Z 3000/3024 28005KT P6SM SKC
     FM300200 26003KT P6SM SCT100 BKN250
     FM301000 32006KT 4SM -SHRA BR SCT006 OVC015
     FM301200 32006KT 4SM BR OVC007
     FM301400 35006KT P6SM OVC007
     FM301600 34006KT P6SM OVC012
     FM302100 35004KT P6SM OVC050=



000
FTUS41 KCLE 292300
TAFERI
TAF
KERI 292327Z 3000/3024 29010KT P6SM SKC
     FM301000 21003KT P6SM SCT250
     FM301200 28005KT P6SM BKN040 OVC100
     FM301400 30006KT P6SM -SHRA OVC015
     FM301700 VRB03KT P6SM OVC025
     FM302300 30006KT 4SM -DZ BR OVC006=



000
FTUS41 KCLE 292300
TAFCLE
TAF
KCLE 292327Z 3000/0106 02004KT P6SM SKC
     FM300600 VRB05KT P6SM SCT100 BKN250
     FM300900 28005KT P6SM SCT015 BKN040 OVC100
     FM301200 29006KT 6SM -SHRA SCT006 OVC015
     FM301500 32006KT 6SM BR BKN006 OVC012
     FM302100 35006KT P6SM VCSH OVC012
     FM010300 07004KT 5SM BR OVC007=



000
FTUS41 KCLE 292300
TAFCAK
TAF
KCAK 292327Z 3000/3024 03007KT P6SM SKC
     FM301000 VRB03KT 6SM BR SCT100 BKN250
     FM301400 27005KT P6SM VCSH SCT015 BKN040 OVC100
     FM301600 29005KT P6SM VCSH BKN015 OVC040
     FM301800 32005KT 6SM -SHRA OVC012
     FM302200 36005KT P6SM OVC007=



000
FTUS41 KCLE 292300
TAFYNG
TAF
KYNG 292327Z 3000/3024 35006KT P6SM SKC
     FM301000 VRB03KT 4SM BR SKC
     FM301100 VRB03KT 4SM BR SCT100 BKN250
     FM301500 27005KT P6SM VCSH SCT015 BKN040 OVC100
     FM301700 29005KT P6SM VCSH BKN015 OVC040
     FM301900 32005KT 6SM -SHRA OVC012
     FM302300 35004KT 4SM -DZ OVC007=



000
FTUS41 KCLE 292300
TAFMFD
TAF
KMFD 292327Z 3000/3024 00000KT P6SM SKC
     FM300900 24005KT 4SM BR SCT100 BKN250
     FM301200 28005KT 5SM BR VCSH SCT015 BKN040 OVC100
     FM301400 30006KT 6SM BR BKN006 OVC015
     FM302200 31005KT P6SM OVC025=



000
FTUS41 KCLE 292000 AAA
TAFCLE
TAF AMD
KCLE 292059Z 2921/3024 35006KT P6SM SKC
     FM300200 VRB05KT P6SM SCT100 BKN250
     FM300900 28005KT P6SM SCT015 BKN040 OVC100
     FM301200 29006KT 6SM -SHRA SCT006 OVC015
     FM301500 32006KT 6SM BR BKN006 OVC012
     FM301900 32006KT P6SM VCSH OVC012=



000
FTUS41 KCLE 291900 AAA
TAFMFD
TAF AMD
KMFD 291904Z 2919/3018 30005KT P6SM FEW050
     FM292300 VRB04KT P6SM SCT250
     FM300900 24005KT 4SM BR SCT100 BKN250
     FM301200 28005KT 5SM BR VCSH SCT015 BKN040 OVC100
     FM301400 30006KT 6SM BR VCSH BKN006 OVC015=



000
FTUS41 KCLE 291700 RRA
TAFYNG
TAF
KYNG 291746Z 2918/3018 25005KT P6SM SCT045
     FM300000 VRB03KT P6SM SCT200
     FM301000 VRB03KT 4SM BR SCT100 BKN250
     FM301500 27005KT P6SM VCSH SCT015 BKN040 OVC100
     FM301700 29005KT P6SM VCSH BKN015 OVC040=



000
FTUS41 KCLE 291700 RRA
TAFTOL
TAF
KTOL 291746Z 2918/3018 28005KT P6SM SKC
     FM300000 26003KT P6SM SCT100 BKN250
     FM300800 29005KT 6SM -SHRA SCT015 BKN040 OVC100
     FM301000 32006KT 4SM -DZ BR SCT006 OVC015
     FM301200 32006KT 6SM BR OVC006
     FM301600 34006KT P6SM OVC012=



000
FTUS41 KCLE 291700 RRA
TAFMFD
TAF
KMFD 291746Z 2918/3018 30005KT P6SM BKN050
     FM300000 VRB04KT P6SM SCT250
     FM300900 24005KT 4SM BR SCT100 BKN250
     FM301200 28005KT 5SM BR VCSH SCT015 BKN040 OVC100
     FM301400 30006KT 6SM BR VCSH BKN006 OVC015=



000
FTUS41 KCLE 291700 RRA
TAFCAK
TAF
KCAK 291746Z 2918/3018 28005KT P6SM SCT045
     FM300000 VRB03KT P6SM SCT200
     FM301000 VRB03KT 6SM BR SCT100 BKN250
     FM301400 27005KT P6SM VCSH SCT015 BKN040 OVC100
     FM301600 29005KT P6SM VCSH BKN015 OVC040=



000
FTUS41 KCLE 291700 RRA
TAFFDY
TAF
KFDY 291746Z 2918/3018 28005KT P6SM SKC
     FM300000 26003KT P6SM SCT100 BKN250
     FM300900 29005KT P6SM VCSH SCT015 BKN040 OVC100
     FM301100 32006KT 6SM BR SCT006 OVC015
     FM301600 34006KT P6SM OVC012=



000
FTUS41 KCLE 291700 RRA
TAFERI
TAF
KERI 291746Z 2918/3018 29010KT P6SM SKC
     FM301000 21003KT P6SM SCT250
     FM301200 28005KT 6SM -SHRA SCT015 BKN040 OVC100
     FM301400 30006KT 5SM -SHRA BR SCT006 OVC015
     FM301600 30006KT 4SM -DZ BR OVC006=



000
FTUS41 KCLE 291700 RRA
TAFCLE
TAF
KCLE 291746Z 2918/3024 35006KT P6SM FEW050
     FM300200 VRB05KT P6SM SCT100 BKN250
     FM300900 28005KT P6SM SCT015 BKN040 OVC100
     FM301200 29006KT 6SM -SHRA SCT006 OVC015
     FM301500 32006KT 6SM BR BKN006 OVC012
     FM301900 32006KT P6SM VCSH OVC012=



000
FTUS41 KCLE 291500 AAA
TAFCLE
TAF AMD
KCLE 291508Z 2915/3018 36005KT P6SM SKC
     FM300000 VRB05KT P6SM SCT100 BKN250
     FM300900 26005KT P6SM VCSH BKN050 OVC100
     FM301200 32007KT P6SM BKN015 OVC040=



000
FTUS41 KCLE 291400 AAA
TAFCAK
TAF AMD
KCAK 291402Z 2914/3012 00000KT 5SM HZ SKC
     FM291530 28005KT P6SM SCT045
     FM300000 VRB03KT P6SM SCT200
     FM301100 27005KT P6SM VCSH BKN040 OVC100=



000
FTUS41 KCLE 291200 AAA
TAFERI
TAF AMD
KERI 291259Z 2913/3012 19003KT P6SM SCT050
     FM291600 32005KT P6SM SKC
     FM292300 20003KT P6SM SCT250
     FM301000 28005KT P6SM VCSH BKN040 OVC100=



000
FTUS41 KCLE 291200 AAA
TAFYNG
TAF AMD
KYNG 291234Z 2913/3012 VRB03KT 2SM BR SKC
     FM291330 25005KT P6SM SCT040
     FM292300 VRB03KT P6SM SKC
     FM301100 25005KT P6SM VCSH BKN040 OVC100=



000
FTUS41 KCLE 291200 AAB
TAFMFD
TAF AMD
KMFD 291222Z 2912/3012 00000KT P6SM SKC
     FM291500 30005KT P6SM SCT050
     FM300000 24003KT P6SM BKN250
     FM301100 28005KT P6SM VCSH BKN040 OVC100=



000
FTUS41 KCLE 291200 AAA
TAFFDY
TAF AMD
KFDY 291220Z 2912/3012 28003KT 4SM BR SKC
     FM291330 31005KT P6SM SKC
     FM300000 24003KT P6SM SCT100 BKN250
     FM300900 31005KT P6SM VCSH BKN040 OVC100
     FM301100 31007KT P6SM BKN015 OVC040=



000
FTUS41 KCLE 291200 AAA
TAFTOL
TAF AMD
KTOL 291219Z 2912/3012 33004KT P6SM SKC
     FM300000 26003KT P6SM SCT100 BKN250
     FM300800 30005KT P6SM VCSH BKN040 OVC100
     FM301000 32007KT P6SM BKN015 OVC040=



000
FTUS41 KCLE 291100 AAA
TAFMFD
TAF AMD
KMFD 291153Z 2912/3012 VRB03KT 4SM BR SCT250
      TEMPO 2912/2913 1SM BR
     FM291500 30005KT P6SM SKC
     FM300000 24003KT P6SM BKN250
     FM301100 28005KT P6SM VCSH BKN040 OVC100=



000
FTUS41 KCLE 291100
TAFFDY
TAF
KFDY 291139Z 2912/3012 28003KT 1SM BR SKC
     FM291300 28003KT 3SM BR SKC
     FM291400 31005KT P6SM SKC
     FM300000 24003KT P6SM SCT100 BKN250
     FM300900 31005KT P6SM VCSH BKN040 OVC100
     FM301100 31007KT P6SM BKN015 OVC040=



000
FTUS41 KCLE 291100
TAFTOL
TAF
KTOL 291139Z 2912/3012 00000KT P6SM SKC
      TEMPO 2912/2913 3SM BR SCT003
     FM291400 30005KT P6SM SKC
     FM300000 26003KT P6SM SCT100 BKN250
     FM300800 30005KT P6SM VCSH BKN040 OVC100
     FM301000 32007KT P6SM BKN015 OVC040=



000
FTUS41 KCLE 291100
TAFCAK
TAF
KCAK 291139Z 2912/3012 00000KT 4SM BR SCT200
     FM291400 28005KT P6SM SKC
     FM300000 VRB03KT P6SM SCT200
     FM301100 27005KT P6SM VCSH BKN040 OVC100=



000
FTUS41 KCLE 291100
TAFCLE
TAF
KCLE 291139Z 2912/3018 VRB03KT 6SM BR SCT250
      TEMPO 2912/2913 4SM BR
     FM291500 30005KT P6SM SKC
     FM300000 VRB05KT P6SM SCT100 BKN250
     FM300900 26005KT P6SM VCSH BKN050 OVC100
     FM301200 32007KT P6SM BKN015 OVC040=



000
FTUS41 KCLE 291100
TAFERI
TAF
KERI 291139Z 2912/3012 19003KT P6SM BKN250
     FM291500 32005KT P6SM SKC
     FM292300 20003KT P6SM SCT250
     FM301000 28005KT P6SM VCSH BKN040 OVC100=



000
FTUS41 KCLE 291100
TAFMFD
TAF
KMFD 291139Z 2912/3012 VRB03KT P6SM SCT250
      TEMPO 2912/2913 3SM BR
     FM291500 30005KT P6SM SKC
     FM300000 24003KT P6SM BKN250
     FM301100 28005KT P6SM VCSH BKN040 OVC100=



000
FTUS41 KCLE 291100
TAFYNG
TAF
KYNG 291139Z 2912/3012 VRB03KT 1/2SM FG BKN001
     FM291330 25003KT 3SM BR SCT002 BKN250
     FM291430 28005KT P6SM SCT040
     FM292300 VRB03KT P6SM SKC
     FM301100 25005KT P6SM VCSH BKN040 OVC100=



000
FTUS41 KCLE 291000 AAA
TAFCLE
TAF AMD
KCLE 291050Z 2911/3012 VRB03KT 6SM BR SCT250
      TEMPO 2911/2913 3SM BR
     FM291500 30005KT P6SM SKC
     FM300000 VRB05KT P6SM SCT100 BKN250
     FM300900 26005KT P6SM VCSH BKN050 OVC100=



000
FTUS41 KCLE 291000 AAA
TAFMFD
TAF AMD
KMFD 291048Z 2911/3006 VRB03KT P6SM SCT250
      TEMPO 2911/2913 3SM BR
     FM291500 30005KT P6SM SKC
     FM300000 24003KT P6SM BKN250=



000
FTUS41 KCLE 290800 AAA
TAFCLE
TAF AMD
KCLE 290854Z 2909/3012 VRB03KT 6SM BR BKN250
     FM291000 VRB03KT 4SM BR SCT003 BKN250
      TEMPO 2910/2913 2SM BR BKN003
     FM291400 30005KT P6SM SKC
     FM300000 VRB05KT P6SM SCT100 BKN250
     FM300900 26005KT P6SM VCSH BKN050 OVC100=



000
FTUS41 KCLE 290800 AAA
TAFYNG
TAF AMD
KYNG 290809Z 2908/3006 VRB03KT 1/2SM FG BKN001
      TEMPO 2909/2913 1/4SM FG OVC001
     FM291330 25003KT 3SM BR SCT002 BKN250
     FM291430 28005KT P6SM SCT040
     FM292300 VRB03KT P6SM SKC=



000
FTUS41 KCLE 290500
TAFTOL
TAF
KTOL 290540Z 2906/3006 00000KT P6SM BKN250
     FM290800 00000KT 4SM BR SCT250
      TEMPO 2909/2913 1SM BR BKN003
     FM291400 30005KT P6SM SKC
     FM300000 24003KT P6SM SCT100 BKN250=



000
FTUS41 KCLE 290500
TAFMFD
TAF
KMFD 290540Z 2906/3006 VRB03KT P6SM BKN250
     FM290900 VRB03KT 4SM BR SCT250
      TEMPO 2909/2913 1SM BR BKN003
     FM291400 30005KT P6SM SKC
     FM300000 24003KT P6SM BKN250=



000
FTUS41 KCLE 290500
TAFFDY
TAF
KFDY 290540Z 2906/3006 00000KT P6SM BKN250
     FM290900 00000KT 5SM BR SCT250
      TEMPO 2909/2913 2SM BR
     FM291300 31005KT P6SM SKC
     FM300000 26003KT P6SM SCT100 BKN250=



000
FTUS41 KCLE 290500
TAFCLE
TAF
KCLE 290540Z 2906/3012 00000KT P6SM BKN250
     FM290800 00000KT 4SM BR SCT003 BKN250
      TEMPO 2909/2913 2SM BR BKN003
     FM291400 30005KT P6SM SKC
     FM300000 VRB05KT P6SM SCT100 BKN250
     FM300900 26005KT P6SM VCSH BKN050 OVC100=



000
FTUS41 KCLE 290500
TAFYNG
TAF
KYNG 290540Z 2906/3006 VRB03KT 2SM BR SCT002 BKN250
     FM290800 VRB03KT 1SM BR BKN002
      TEMPO 2909/2913 1/2SM FG OVC002
     FM291330 25003KT 3SM BR SCT002 BKN250
     FM291430 28005KT P6SM SCT040
     FM292300 VRB03KT P6SM SKC=



000
FTUS41 KCLE 290500
TAFCAK
TAF
KCAK 290540Z 2906/3006 00000KT P6SM BKN200
     FM290800 00000KT 5SM BR SCT200
      TEMPO 2909/2913 2SM BR
     FM291400 30005KT P6SM SKC
     FM300000 VRB03KT P6SM SCT200=



000
FTUS41 KCLE 290500
TAFERI
TAF
KERI 290540Z 2906/3006 VRB03KT P6SM BKN250
      TEMPO 2909/2913 4SM BR
     FM291500 32005KT P6SM SCT250
     FM292300 22003KT P6SM SCT250=



000
FTUS41 KCLE 290300 AAA
TAFCLE
TAF AMD
KCLE 290311Z 2903/3006 15003KT P6SM SCT070 BKN200
     FM291000 00000KT 4SM BR SKC
      TEMPO 2911/2913 2SM BR SKC
     FM291330 VRB03KT P6SM SKC
     FM291700 34005KT P6SM FEW040
     FM300100 VRB04KT P6SM SKC=



000
FTUS41 KCLE 282300
TAFYNG
TAF
KYNG 282339Z 2900/2924 VRB03KT P6SM SCT050 BKN200
     FM290900 00000KT 4SM BR SCT200
      TEMPO 2911/2913 2SM BR
     FM291400 25004KT P6SM FEW040 SCT200=



000
FTUS41 KCLE 282300
TAFTOL
TAF
KTOL 282339Z 2900/2924 10003KT P6SM BKN200
     FM290700 00000KT 4SM BR SCT250
      TEMPO 2909/2913 1SM BR
     FM291400 32004KT P6SM FEW040=



000
FTUS41 KCLE 282300
TAFERI
TAF
KERI 282339Z 2900/2924 19003KT P6SM BKN200
     FM291000 00000KT 4SM BR SCT200
     FM291400 31005KT P6SM SCT200=



000
FTUS41 KCLE 282300
TAFCAK
TAF
KCAK 282339Z 2900/2924 VRB02KT P6SM SCT050 BKN200
     FM290900 00000KT 4SM BR SCT200
      TEMPO 2911/2913 2SM BR
     FM291400 25004KT P6SM FEW040 SCT200=



000
FTUS41 KCLE 282300
TAFMFD
TAF
KMFD 282339Z 2900/2924 VRB03KT P6SM SCT120 BKN250
     FM290700 00000KT 4SM BR SCT250
     FM290900 00000KT 1SM BR SCT250
      TEMPO 2909/2911 3/4SM BR SKC
     FM291400 29005KT P6SM SCT040 SCT200=



000
FTUS41 KCLE 282300
TAFCLE
TAF
KCLE 282339Z 2900/3006 VRB03KT P6SM BKN200
     FM291000 00000KT 4SM BR SKC
     FM291400 VRB03KT P6SM SKC
     FM291700 34005KT P6SM FEW040
     FM300100 VRB04KT P6SM SKC=



000
FTUS41 KCLE 282300
TAFFDY
TAF
KFDY 282339Z 2900/2924 10003KT P6SM SCT250
     FM290900 00000KT 4SM BR SCT200
      TEMPO 2910/2913 2SM BR
     FM291400 32004KT P6SM FEW040=



000
FTUS41 KCLE 282100 AAA
TAFCLE
TAF AMD
KCLE 282104Z 2821/2924 36006KT P6SM BKN200
     FM290100 15002KT P6SM SCT200
     FM291100 00000KT 4SM BR SCT200
     FM291400 VRB03KT P6SM FEW040 SCT200
     FM291700 36005KT P6SM SCT200=



000
FTUS41 KCLE 281700
TAFCAK
TAF
KCAK 281736Z 2818/2918 VRB03KT P6SM FEW045 BKN250
     FM290000 VRB02KT P6SM SCT200
     FM290900 00000KT 3SM BR SCT200
      TEMPO 2910/2913 1SM BR
     FM291400 25004KT P6SM FEW040 SCT200=



000
FTUS41 KCLE 281700
TAFERI
TAF
KERI 281736Z 2818/2918 36006KT P6SM BKN250
     FM290100 00000KT P6SM SCT200
     FM291000 00000KT 4SM BR SCT200
     FM291400 31005KT P6SM SCT200=



000
FTUS41 KCLE 281700
TAFMFD
TAF
KMFD 281736Z 2818/2918 VRB03KT P6SM FEW045 BKN250
     FM290000 00000KT P6SM SCT200
     FM290800 00000KT 3SM BR SCT200
     FM291100 00000KT 3/4SM BR SCT200
     FM291400 29004KT P6SM FEW040 SCT200=



000
FTUS41 KCLE 281700
TAFYNG
TAF
KYNG 281736Z 2818/2918 VRB03KT P6SM FEW045 BKN250
     FM290000 VRB02KT P6SM SCT200
     FM290900 00000KT 3SM BR SCT200
      TEMPO 2910/2913 3/4SM BR
     FM291400 25004KT P6SM FEW040 SCT200=



000
FTUS41 KCLE 281700
TAFCLE
TAF
KCLE 281736Z 2818/2924 01008KT P6SM FEW040 BKN250
     FM290100 15002KT P6SM SCT200
     FM291100 00000KT 4SM BR SCT200
     FM291400 VRB03KT P6SM FEW040 SCT200
     FM291700 36005KT P6SM SCT200=



000
FTUS41 KCLE 281700
TAFTOL
TAF
KTOL 281736Z 2818/2918 VRB03KT P6SM SCT250
     FM290900 00000KT 4SM BR SCT200
      TEMPO 2910/2913 2SM BR
     FM291400 32003KT P6SM FEW040 SCT200=



000
FTUS41 KCLE 281700
TAFFDY
TAF
KFDY 281736Z 2818/2918 35004KT P6SM SCT250
     FM290000 VRB03KT P6SM SCT200
     FM290900 00000KT 4SM BR SCT200
      TEMPO 2910/2913 1SM BR
     FM291400 32004KT P6SM FEW040 SCT200=



    US Dept of Commerce
    National Oceanic and Atmospheric Administration
    National Weather Service
    1325 East West Highway
    Silver Spring, MD 20910
    Page Author: NWS Internet Services Team
Disclaimer
Information Quality
Credits
Glossary
Privacy Policy
Freedom of Information Act (FOIA)
About Us
Career Opportunities